Time;durP1;ratioP1;P1;durP2;ratioP2;P2;SDS_P1;SDS_P2;PMS_P1;PMS_P2;Temp;Humidity;BMP_temperature;BMP_pressure;BME280_temperature;BME280_humidity;BME280_pressure;Samples;Min_cycle;Max_cycle;Signal;HPM_P1;HPM_P2
2022/04/17 00:00:17;;;;;;;8.40;5.30;;;;;;;;;;5002349;28;20041;-84
2022/04/17 00:02:43;;;;;;;9.38;6.00;;;;;;;;;;4998941;28;20104;-80
2022/04/17 00:05:09;;;;;;;9.82;5.35;;;;;;;;;;5002729;28;20030;-84
2022/04/17 00:07:35;;;;;;;7.88;5.32;;;;;;;;;;4999145;28;20561;-87
2022/04/17 00:10:01;;;;;;;9.65;5.93;;;;;;;;;;4994788;28;20025;-80
2022/04/17 00:12:26;;;;;;;8.30;5.63;;;;;;;;;;4993660;28;20130;-83
2022/04/17 00:14:54;;;;;;;8.80;5.40;;;;;;;;;;4997135;28;20473;-80
2022/04/17 00:17:20;;;;;;;8.63;5.85;;;;;;;;;;4997676;28;20695;-84
2022/04/17 00:19:47;;;;;;;8.30;5.60;;;;;;;;;;5000368;28;20041;-80
2022/04/17 00:22:13;;;;;;;9.43;5.90;;;;;;;;;;5002489;28;20030;-86
2022/04/17 00:24:42;;;;;;;9.30;5.93;;;;;;;;;;5000428;28;20034;-81
2022/04/17 00:27:07;;;;;;;7.85;5.45;;;;;;;;;;4999685;28;20511;-81
2022/04/17 00:29:35;;;;;;;10.50;6.38;;;;;;;;;;5000811;28;20033;-81
2022/04/17 00:32:03;;;;;;;9.35;6.47;;;;;;;;;;5001586;28;20065;-80
2022/04/17 00:34:34;;;;;;;9.25;5.80;;;;;;;;;;4993237;28;20058;-81
2022/04/17 00:37:00;;;;;;;9.95;6.63;;;;;;;;;;5005219;28;20032;-81
2022/04/17 00:39:27;;;;;;;10.52;6.60;;;;;;;;;;5003135;28;20030;-81
2022/04/17 00:41:54;;;;;;;9.35;5.93;;;;;;;;;;5004437;28;20028;-84
2022/04/17 00:44:19;;;;;;;9.85;6.10;;;;;;;;;;4998554;28;20065;-87
2022/04/17 00:46:45;;;;;;;9.88;6.32;;;;;;;;;;5006298;28;20076;-81
2022/04/17 00:49:10;;;;;;;9.10;5.57;;;;;;;;;;5000228;28;20064;-81
2022/04/17 00:51:36;;;;;;;9.40;5.97;;;;;;;;;;5003059;28;20030;-87
2022/04/17 00:54:08;;;;;;;8.50;6.00;;;;;;;;;;4997849;28;20080;-83
2022/04/17 00:56:34;;;;;;;10.48;6.07;;;;;;;;;;4998393;28;20057;-81
2022/04/17 00:59:01;;;;;;;9.90;6.03;;;;;;;;;;5004593;28;20108;-82
2022/04/17 01:01:32;;;;;;;9.85;6.47;;;;;;;;;;5006068;28;20060;-87
2022/04/17 01:04:00;;;;;;;8.85;5.75;;;;;;;;;;5005369;28;20034;-86
2022/04/17 01:06:30;;;;;;;10.70;6.50;;;;;;;;;;5021605;28;20031;-79
2022/04/17 01:08:55;;;;;;;8.52;5.80;;;;;;;;;;5019883;28;20116;-80
2022/04/17 01:11:21;;;;;;;9.60;6.20;;;;;;;;;;5008816;28;20088;-88
2022/04/17 01:13:47;;;;;;;8.10;5.80;;;;;;;;;;5008169;28;20483;-84
2022/04/17 01:16:16;;;;;;;10.30;5.85;;;;;;;;;;5004361;28;20621;-84
2022/04/17 01:19:01;;;;;;;11.27;6.13;;;;;;;;;;5005074;28;20029;-80
2022/04/17 01:21:33;;;;;;;9.68;6.25;;;;;;;;;;5008470;28;20061;-81
2022/04/17 01:27:01;;;;;;;9.50;6.20;;;;;;;;;;5022906;28;20040;-81
2022/04/17 01:29:31;;;;;;;10.98;6.47;;;;;;;;;;5007458;28;20029;-81
2022/04/17 01:32:02;;;;;;;8.73;5.90;;;;;;;;;;5006870;28;20533;-86
2022/04/17 01:34:28;;;;;;;9.48;5.53;;;;;;;;;;5006709;28;20028;-81
2022/04/17 01:36:54;;;;;;;8.07;5.75;;;;;;;;;;5019789;28;20045;-87
2022/04/17 01:39:22;;;;;;;8.32;5.50;;;;;;;;;;5008043;28;20108;-81
2022/04/17 01:41:50;;;;;;;8.68;6.18;;;;;;;;;;5008589;28;20120;-81
2022/04/17 01:44:18;;;;;;;9.23;6.32;;;;;;;;;;5023208;28;20041;-81
2022/04/17 01:46:45;;;;;;;9.75;6.72;;;;;;;;;;5007216;28;20578;-82
2022/04/17 01:49:11;;;;;;;9.30;6.10;;;;;;;;;;5008307;28;20061;-80
2022/04/17 01:51:38;;;;;;;8.82;6.20;;;;;;;;;;5000902;28;20487;-84
2022/04/17 01:54:09;;;;;;;9.23;5.90;;;;;;;;;;5024926;28;20057;-85
2022/04/17 01:56:35;;;;;;;8.98;5.93;;;;;;;;;;5007226;28;20072;-81
2022/04/17 01:59:01;;;;;;;8.68;5.72;;;;;;;;;;5023557;28;20033;-87
2022/04/17 02:01:27;;;;;;;9.57;6.20;;;;;;;;;;5007352;28;20502;-81
2022/04/17 02:03:52;;;;;;;9.77;6.13;;;;;;;;;;5019933;28;20042;-82
2022/04/17 02:06:18;;;;;;;9.63;6.25;;;;;;;;;;5003049;28;20032;-81
2022/04/17 02:08:44;;;;;;;8.45;5.93;;;;;;;;;;5003543;28;20083;-80
2022/04/17 02:11:12;;;;;;;12.35;6.53;;;;;;;;;;5017973;28;20624;-82
2022/04/17 02:13:38;;;;;;;11.30;6.32;;;;;;;;;;5006733;28;20025;-81
2022/04/17 02:16:04;;;;;;;11.32;6.60;;;;;;;;;;5024700;28;20116;-85
2022/04/17 02:18:29;;;;;;;10.40;6.95;;;;;;;;;;5023724;28;20488;-80
2022/04/17 02:20:55;;;;;;;10.55;6.55;;;;;;;;;;5003830;28;20025;-84
2022/04/17 02:23:20;;;;;;;10.82;6.55;;;;;;;;;;5003070;28;20057;-80
2022/04/17 02:25:46;;;;;;;8.85;6.22;;;;;;;;;;5006540;28;20034;-85
2022/04/17 02:28:15;;;;;;;10.25;6.32;;;;;;;;;;5024493;28;20126;-84
2022/04/17 02:30:43;;;;;;;10.95;6.93;;;;;;;;;;5008679;28;20030;-80
2022/04/17 02:33:09;;;;;;;10.20;6.35;;;;;;;;;;5020487;28;20034;-85
2022/04/17 02:35:34;;;;;;;10.80;7.13;;;;;;;;;;5005728;28;20028;-81
2022/04/17 02:38:00;;;;;;;10.80;7.03;;;;;;;;;;5006576;28;20037;-81
2022/04/17 02:40:26;;;;;;;10.80;7.15;;;;;;;;;;5025280;28;20053;-85
2022/04/17 02:42:57;;;;;;;12.63;6.93;;;;;;;;;;5023005;28;20436;-84
2022/04/17 02:45:23;;;;;;;10.77;6.70;;;;;;;;;;5005820;28;20073;-86
2022/04/17 02:47:51;;;;;;;14.35;6.90;;;;;;;;;;5010154;28;20061;-83
2022/04/17 02:50:18;;;;;;;10.43;6.63;;;;;;;;;;5000399;28;20029;-81
2022/04/17 02:52:48;;;;;;;9.40;6.72;;;;;;;;;;5005496;28;20079;-81
2022/04/17 02:55:16;;;;;;;10.32;6.78;;;;;;;;;;5006126;28;20406;-86
2022/04/17 02:57:42;;;;;;;11.50;6.88;;;;;;;;;;5026039;28;20048;-80
2022/04/17 03:00:09;;;;;;;11.80;7.43;;;;;;;;;;4999688;28;20574;-84
2022/04/17 03:05:36;;;;;;;9.95;6.85;;;;;;;;;;5023164;28;20336;-84
2022/04/17 03:08:09;;;;;;;11.00;7.07;;;;;;;;;;5007578;28;20029;-80
2022/04/17 03:10:38;;;;;;;10.05;7.35;;;;;;;;;;5008005;28;20502;-84
2022/04/17 03:13:04;;;;;;;11.02;6.95;;;;;;;;;;5025438;28;20039;-87
2022/04/17 03:15:31;;;;;;;10.48;6.93;;;;;;;;;;5000729;28;20025;-83
2022/04/17 03:17:58;;;;;;;11.82;7.55;;;;;;;;;;5005999;28;20029;-86
2022/04/17 03:20:26;;;;;;;10.23;6.90;;;;;;;;;;5002644;28;20068;-87
2022/04/17 03:22:51;;;;;;;13.18;7.45;;;;;;;;;;5007031;28;20076;-82
2022/04/17 03:25:16;;;;;;;11.00;7.40;;;;;;;;;;5004017;28;20029;-85
2022/04/17 03:27:45;;;;;;;11.85;6.88;;;;;;;;;;5018308;28;20061;-81
2022/04/17 03:30:10;;;;;;;10.43;6.72;;;;;;;;;;5005480;28;20025;-84
2022/04/17 03:32:35;;;;;;;11.93;7.32;;;;;;;;;;5003036;28;20524;-81
2022/04/17 03:35:03;;;;;;;10.85;6.90;;;;;;;;;;5002208;28;20479;-81
2022/04/17 03:37:31;;;;;;;11.45;7.15;;;;;;;;;;5007418;28;20108;-84
2022/04/17 03:39:59;;;;;;;10.65;7.55;;;;;;;;;;5025036;28;20033;-86
2022/04/17 03:42:27;;;;;;;11.93;7.32;;;;;;;;;;5003665;28;20071;-81
2022/04/17 03:44:53;;;;;;;12.00;7.75;;;;;;;;;;5002117;28;20121;-82
2022/04/17 03:47:18;;;;;;;11.50;7.25;;;;;;;;;;5000796;28;20061;-84
2022/04/17 03:49:47;;;;;;;13.73;7.35;;;;;;;;;;5021105;28;20108;-85
2022/04/17 03:52:12;;;;;;;12.85;8.00;;;;;;;;;;4999022;28;20514;-86
2022/04/17 03:54:38;;;;;;;11.05;7.35;;;;;;;;;;5022171;28;20029;-84
2022/04/17 03:57:03;;;;;;;10.23;6.88;;;;;;;;;;4999231;28;20656;-81
2022/04/17 03:59:31;;;;;;;10.65;7.28;;;;;;;;;;5002313;28;20502;-82
2022/04/17 04:01:59;;;;;;;11.63;7.25;;;;;;;;;;5005876;28;20029;-80
2022/04/17 04:04:25;;;;;;;11.45;7.47;;;;;;;;;;5003595;28;20033;-80
2022/04/17 04:06:51;;;;;;;11.23;7.47;;;;;;;;;;4997222;28;20465;-81
2022/04/17 04:09:16;;;;;;;12.63;7.55;;;;;;;;;;5000203;28;20483;-84
2022/04/17 04:11:43;;;;;;;10.98;7.45;;;;;;;;;;5022669;28;20029;-81
2022/04/17 04:14:10;;;;;;;10.68;7.63;;;;;;;;;;5005364;28;20037;-80
2022/04/17 04:16:35;;;;;;;13.18;7.82;;;;;;;;;;5020865;28;20029;-80
2022/04/17 04:19:01;;;;;;;12.05;7.07;;;;;;;;;;5008559;28;20029;-89
2022/04/17 04:21:26;;;;;;;10.23;7.15;;;;;;;;;;5025523;28;20025;-80
2022/04/17 04:23:51;;;;;;;10.05;7.07;;;;;;;;;;5004981;28;22427;-80
2022/04/17 04:26:17;;;;;;;11.55;7.28;;;;;;;;;;5006080;28;20040;-88
2022/04/17 04:28:42;;;;;;;9.48;7.00;;;;;;;;;;5006880;28;20029;-80
2022/04/17 04:31:12;;;;;;;10.50;6.65;;;;;;;;;;5020508;28;20043;-84
2022/04/17 04:33:39;;;;;;;10.77;6.65;;;;;;;;;;5018537;28;20087;-89
2022/04/17 04:36:06;;;;;;;11.23;6.78;;;;;;;;;;5006560;28;20055;-84
2022/04/17 04:38:32;;;;;;;10.35;6.80;;;;;;;;;;5005745;28;20025;-80
2022/04/17 04:40:59;;;;;;;14.25;7.70;;;;;;;;;;5006109;28;20025;-80
2022/04/17 04:43:24;;;;;;;10.48;7.13;;;;;;;;;;5004715;28;20038;-81
2022/04/17 04:46:08;;;;;;;10.75;6.85;;;;;;;;;;5006813;28;20036;-80
2022/04/17 04:51:21;;;;;;;12.60;6.30;;;;;;;;;;5023113;28;20036;-84
2022/04/17 04:53:47;;;;;;;12.20;7.03;;;;;;;;;;5013792;28;20040;-87
2022/04/17 04:56:13;;;;;;;11.40;7.13;;;;;;;;;;5004592;28;20037;-80
2022/04/17 04:58:41;;;;;;;9.35;6.18;;;;;;;;;;5006718;28;20208;-81
2022/04/17 05:01:07;;;;;;;10.50;6.50;;;;;;;;;;5023470;28;20044;-84
2022/04/17 05:03:32;;;;;;;10.43;6.80;;;;;;;;;;5026192;28;20037;-81
2022/04/17 05:05:58;;;;;;;12.85;7.15;;;;;;;;;;5024021;28;20121;-80
2022/04/17 05:08:23;;;;;;;10.35;6.65;;;;;;;;;;5002955;28;20033;-83
2022/04/17 05:10:48;;;;;;;11.05;6.78;;;;;;;;;;5005444;28;20121;-82
2022/04/17 05:13:14;;;;;;;9.55;6.15;;;;;;;;;;5004823;28;20546;-84
2022/04/17 05:15:40;;;;;;;10.45;6.90;;;;;;;;;;5020097;28;21730;-84
2022/04/17 05:18:06;;;;;;;10.40;6.63;;;;;;;;;;5020772;28;20102;-86
2022/04/17 05:20:34;;;;;;;11.32;6.65;;;;;;;;;;5028100;28;20029;-84
2022/04/17 05:23:15;;;;;;;11.18;6.55;;;;;;;;;;5006438;28;20036;-80
2022/04/17 05:25:50;;;;;;;10.23;6.40;;;;;;;;;;5006454;28;20033;-87
2022/04/17 05:28:15;;;;;;;12.98;6.70;;;;;;;;;;5007905;28;20029;-81
2022/04/17 05:30:41;;;;;;;11.18;6.97;;;;;;;;;;5004854;28;20040;-87
2022/04/17 05:33:07;;;;;;;9.93;6.28;;;;;;;;;;5008598;28;20801;-87
2022/04/17 05:35:33;;;;;;;9.73;6.35;;;;;;;;;;5023486;28;20117;-80
2022/04/17 05:37:58;;;;;;;10.55;6.50;;;;;;;;;;5006391;28;20071;-88
2022/04/17 05:40:24;;;;;;;10.75;6.30;;;;;;;;;;5024673;28;20092;-80
2022/04/17 05:42:49;;;;;;;9.23;6.05;;;;;;;;;;5021243;28;20032;-80
2022/04/17 05:45:15;;;;;;;10.35;6.45;;;;;;;;;;5008664;28;20025;-81
2022/04/17 05:47:41;;;;;;;11.48;6.47;;;;;;;;;;5025063;28;20029;-84
2022/04/17 05:50:06;;;;;;;10.18;5.88;;;;;;;;;;5010786;28;20479;-80
2022/04/17 05:52:32;;;;;;;9.65;6.07;;;;;;;;;;5025556;28;20045;-87
2022/04/17 05:55:03;;;;;;;11.07;6.47;;;;;;;;;;5005790;28;20112;-80
2022/04/17 05:57:28;;;;;;;9.30;6.05;;;;;;;;;;5020193;28;20045;-80
2022/04/17 05:59:54;;;;;;;8.25;5.40;;;;;;;;;;5011651;28;20044;-80
2022/04/17 06:02:19;;;;;;;9.68;5.68;;;;;;;;;;5004117;28;20032;-83
2022/04/17 06:04:45;;;;;;;8.65;5.88;;;;;;;;;;5023233;28;20045;-87
2022/04/17 06:07:11;;;;;;;8.38;5.40;;;;;;;;;;5001718;28;20067;-81
2022/04/17 06:09:36;;;;;;;9.43;5.47;;;;;;;;;;5024405;28;20030;-84
2022/04/17 06:12:02;;;;;;;11.25;5.97;;;;;;;;;;5021217;28;20034;-84
2022/04/17 06:14:28;;;;;;;11.48;5.28;;;;;;;;;;5010183;28;20084;-80
2022/04/17 06:16:53;;;;;;;10.23;6.22;;;;;;;;;;5005322;28;20033;-80
2022/04/17 06:19:18;;;;;;;8.65;5.57;;;;;;;;;;5008944;28;20029;-86
2022/04/17 06:21:44;;;;;;;10.15;5.68;;;;;;;;;;5024697;28;20047;-84
2022/04/17 06:24:09;;;;;;;8.82;5.63;;;;;;;;;;5023348;28;20068;-79
2022/04/17 06:26:35;;;;;;;9.75;5.68;;;;;;;;;;5010915;28;20021;-88
2022/04/17 06:29:05;;;;;;;7.25;4.97;;;;;;;;;;5005008;28;20057;-87
2022/04/17 06:31:31;;;;;;;7.70;5.05;;;;;;;;;;5003781;28;20482;-83
2022/04/17 06:33:56;;;;;;;8.02;4.97;;;;;;;;;;5006477;28;20061;-85
2022/04/17 06:36:21;;;;;;;7.25;4.95;;;;;;;;;;5021779;28;20041;-81
2022/04/17 06:38:46;;;;;;;9.20;4.97;;;;;;;;;;5002305;28;20076;-81
2022/04/17 06:41:14;;;;;;;8.68;4.80;;;;;;;;;;5019981;28;20463;-81
2022/04/17 06:43:40;;;;;;;7.93;5.07;;;;;;;;;;5005196;28;20069;-80
2022/04/17 06:46:05;;;;;;;7.75;5.00;;;;;;;;;;4999329;28;20129;-89
2022/04/17 06:48:35;;;;;;;6.88;4.55;;;;;;;;;;5014827;28;20091;-83
2022/04/17 06:51:01;;;;;;;7.15;4.50;;;;;;;;;;5002505;28;21400;-89
2022/04/17 06:53:26;;;;;;;5.95;4.07;;;;;;;;;;4998665;28;20032;-86
2022/04/17 06:55:52;;;;;;;8.07;4.80;;;;;;;;;;5005668;28;20036;-83
2022/04/17 06:58:19;;;;;;;6.45;4.30;;;;;;;;;;5005332;28;20135;-81
2022/04/17 07:00:45;;;;;;;6.50;4.20;;;;;;;;;;5019534;28;20510;-80
2022/04/17 07:03:13;;;;;;;6.50;4.15;;;;;;;;;;5007889;28;20411;-80
2022/04/17 07:05:44;;;;;;;7.03;4.05;;;;;;;;;;5019902;28;20033;-80
2022/04/17 07:08:40;;;;;;;7.18;3.75;;;;;;;;;;5002530;28;20139;-80
2022/04/17 07:11:05;;;;;;;7.07;4.22;;;;;;;;;;5002797;28;20037;-80
2022/04/17 07:13:31;;;;;;;6.40;3.97;;;;;;;;;;5007519;28;20411;-80
2022/04/17 07:15:57;;;;;;;8.02;3.80;;;;;;;;;;5010440;28;20462;-80
2022/04/17 07:18:22;;;;;;;6.45;4.00;;;;;;;;;;5010436;28;20040;-87
2022/04/17 07:20:48;;;;;;;6.85;3.60;;;;;;;;;;5007209;28;20032;-87
2022/04/17 07:23:13;;;;;;;6.57;3.97;;;;;;;;;;5007294;28;20044;-83
2022/04/17 07:25:39;;;;;;;6.10;4.00;;;;;;;;;;5008438;28;20026;-80
2022/04/17 07:28:12;;;;;;;5.60;3.85;;;;;;;;;;5010928;28;20417;-89
2022/04/17 07:30:37;;;;;;;;;;;;;;;;;;5024346;28;20029;-81
2022/04/17 07:33:02;;;;;;;5.43;3.67;;;;;;;;;;5009864;28;19927;-82
2022/04/17 07:35:29;;;;;;;6.20;3.58;;;;;;;;;;5008316;28;20048;-79
2022/04/17 07:37:57;;;;;;;6.18;3.70;;;;;;;;;;5008251;28;20029;-81
2022/04/17 07:41:03;;;;;;;6.20;4.05;;;;;;;;;;5020824;28;20052;-80
2022/04/17 07:43:35;;;;;;;6.57;3.67;;;;;;;;;;5019985;28;20402;-83
2022/04/17 07:46:07;;;;;;;5.68;3.80;;;;;;;;;;5007710;28;20041;-87
2022/04/17 07:48:32;;;;;;;6.35;3.70;;;;;;;;;;5000062;28;20538;-81
2022/04/17 07:51:06;;;;;;;8.70;3.88;;;;;;;;;;5006107;28;20029;-88
2022/04/17 07:53:37;;;;;;;6.75;3.63;;;;;;;;;;5011517;28;20029;-82
2022/04/17 07:56:45;;;;;;;6.95;3.47;;;;;;;;;;5004990;28;20036;-80
2022/04/17 07:59:12;;;;;;;5.03;3.20;;;;;;;;;;5005712;28;20565;-82
2022/04/17 08:01:50;;;;;;;;;;;;;;;;;;;;;
2022/04/17 08:04:39;;;;;;;4.40;2.90;;;;;;;;;;4960106;28;20041;-83
2022/04/17 08:07:20;;;;;;;;;;;;;;;;;;;;;
2022/04/17 08:10:16;;;;;;;6.50;3.78;;;;;;;;;;5026749;28;20021;-83
2022/04/17 08:13:10;;;;;;;5.55;3.47;;;;;;;;;;5008548;28;20029;-82
2022/04/17 08:16:13;;;;;;;9.43;3.58;;;;;;;;;;5020510;28;20502;-82
2022/04/17 08:21:55;;;;;;;;;;;;;;;;;;;;;
2022/04/17 08:24:43;;;;;;;7.05;3.80;;;;;;;;;;4908644;29;20450;-79
2022/04/17 08:27:53;;;;;;;;;;;;;;;;;;;;;
2022/04/17 08:33:47;;;;;;;5.88;3.15;;;;;;;;;;4845680;29;20148;-83
2022/04/17 08:36:12;;;;;;;4.40;2.75;;;;;;;;;;4852394;29;20052;-88
2022/04/17 08:38:44;;;;;;;4.28;2.67;;;;;;;;;;4852656;29;20050;-80
2022/04/17 08:44:15;;;;;;;;;;;;;;;;;;4862916;29;20143;-80
2022/04/17 08:47:17;;;;;;;4.72;2.90;;;;;;;;;;4887266;29;19928;-89
2022/04/17 08:49:56;;;;;;;;;;;;;;;;;;;;;
2022/04/17 08:53:16;;;;;;;4.47;2.53;;;;;;;;;;4891989;29;20444;-80
2022/04/17 09:02:19;;;;;;;4.70;2.80;;;;;;;;;;5037611;28;20410;-87
2022/04/17 09:04:47;;;;;;;5.07;2.92;;;;;;;;;;5024110;28;20505;-82
2022/04/17 09:07:19;;;;;;;4.43;3.00;;;;;;;;;;5026882;28;20560;-87
2022/04/17 09:09:53;;;;;;;4.85;3.10;;;;;;;;;;5024953;28;20543;-82
2022/04/17 09:12:19;;;;;;;4.63;2.80;;;;;;;;;;5025880;28;20478;-82
2022/04/17 09:14:51;;;;;;;4.30;2.72;;;;;;;;;;5029503;28;20012;-85
2022/04/17 09:17:49;;;;;;;9.07;3.17;;;;;;;;;;5027112;28;20032;-80
2022/04/17 09:20:24;;;;;;;4.05;2.85;;;;;;;;;;5038069;28;20763;-80
2022/04/17 09:22:54;;;;;;;5.05;3.00;;;;;;;;;;5022332;28;20029;-80
2022/04/17 09:25:23;;;;;;;4.47;3.10;;;;;;;;;;5022655;28;20017;-82
2022/04/17 09:28:08;;;;;;;6.18;3.13;;;;;;;;;;5019382;28;20041;-87
2022/04/17 09:30:40;;;;;;;6.13;3.10;;;;;;;;;;5039246;28;20478;-81
2022/04/17 09:33:10;;;;;;;4.30;2.90;;;;;;;;;;5016311;28;20086;-80
2022/04/17 09:35:36;;;;;;;5.25;2.70;;;;;;;;;;5025675;28;20270;-82
2022/04/17 09:38:09;;;;;;;4.25;2.65;;;;;;;;;;5036500;28;20090;-82
2022/04/17 09:40:36;;;;;;;4.28;3.20;;;;;;;;;;5020541;28;20032;-85
2022/04/17 09:43:14;;;;;;;5.38;3.10;;;;;;;;;;5057029;28;20039;-81
2022/04/17 09:45:59;;;;;;;4.05;2.67;;;;;;;;;;5028438;28;20506;-82
2022/04/17 09:48:28;;;;;;;4.70;2.80;;;;;;;;;;5052836;28;20028;-80
2022/04/17 09:50:56;;;;;;;4.85;3.10;;;;;;;;;;5027174;28;20028;-86
2022/04/17 09:53:33;;;;;;;5.75;3.30;;;;;;;;;;5051772;28;20035;-80
2022/04/17 09:56:10;;;;;;;7.45;3.25;;;;;;;;;;5068286;28;20035;-87
2022/04/17 09:58:42;;;;;;;4.80;3.28;;;;;;;;;;5076836;28;20060;-80
2022/04/17 10:01:08;;;;;;;6.55;3.78;;;;;;;;;;5075174;28;20044;-80
2022/04/17 10:03:40;;;;;;;4.53;2.95;;;;;;;;;;5061515;28;20040;-85
2022/04/17 10:06:07;;;;;;;4.73;3.23;;;;;;;;;;5064223;28;20036;-87
2022/04/17 10:08:33;;;;;;;6.72;3.25;;;;;;;;;;5053669;28;20367;-88
2022/04/17 10:11:00;;;;;;;5.55;3.17;;;;;;;;;;5063494;28;20029;-81
2022/04/17 10:13:33;;;;;;;5.40;3.17;;;;;;;;;;5058480;28;20024;-82
2022/04/17 10:16:04;;;;;;;4.55;3.20;;;;;;;;;;5072408;28;20032;-81
2022/04/17 10:18:33;;;;;;;6.07;3.40;;;;;;;;;;5064877;28;20074;-83
2022/04/17 10:21:00;;;;;;;4.57;3.28;;;;;;;;;;5074869;28;20105;-88
2022/04/17 10:23:27;;;;;;;7.50;3.40;;;;;;;;;;5057604;28;20032;-82
2022/04/17 10:25:56;;;;;;;5.20;3.60;;;;;;;;;;5075002;28;20402;-81
2022/04/17 10:28:22;;;;;;;4.47;3.20;;;;;;;;;;5057175;28;20024;-88
2022/04/17 10:31:12;;;;;;;4.85;3.30;;;;;;;;;;5064550;28;20028;-80
2022/04/17 10:33:52;;;;;;;4.55;3.30;;;;;;;;;;5061843;28;20028;-80
2022/04/17 10:37:01;;;;;;;4.65;3.10;;;;;;;;;;5081090;28;20028;-79
2022/04/17 10:39:33;;;;;;;4.65;3.10;;;;;;;;;;5070134;28;20075;-87
2022/04/17 10:41:58;;;;;;;4.57;3.42;;;;;;;;;;5068007;28;20603;-81
2022/04/17 10:44:28;;;;;;;4.50;2.90;;;;;;;;;;5064002;28;20150;-87
2022/04/17 10:46:53;;;;;;;5.00;3.00;;;;;;;;;;5058922;28;20029;-81
2022/04/17 10:49:21;;;;;;;4.88;3.10;;;;;;;;;;5056536;28;20042;-81
2022/04/17 10:51:54;;;;;;;4.82;3.17;;;;;;;;;;5059247;28;20029;-86
2022/04/17 10:54:20;;;;;;;4.55;3.20;;;;;;;;;;5067386;28;20035;-87
2022/04/17 10:57:05;;;;;;;5.43;3.22;;;;;;;;;;5059643;28;20032;-87
2022/04/17 10:59:33;;;;;;;4.25;3.00;;;;;;;;;;5052865;28;20132;-80
2022/04/17 11:02:08;;;;;;;4.47;3.05;;;;;;;;;;5053961;28;20048;-80
2022/04/17 11:04:50;;;;;;;6.05;3.80;;;;;;;;;;5072650;28;20077;-88
2022/04/17 11:07:15;;;;;;;4.47;3.30;;;;;;;;;;5071238;28;20024;-82
2022/04/17 11:09:44;;;;;;;5.25;3.13;;;;;;;;;;5073558;28;20027;-81
2022/04/17 11:12:27;;;;;;;5.53;3.25;;;;;;;;;;5075235;28;20512;-83
2022/04/17 11:15:02;;;;;;;4.75;3.08;;;;;;;;;;5056769;28;20043;-82
2022/04/17 11:17:29;;;;;;;5.63;3.58;;;;;;;;;;5076484;28;20119;-80
2022/04/17 11:19:57;;;;;;;6.35;3.40;;;;;;;;;;5056884;28;20081;-81
2022/04/17 11:22:34;;;;;;;4.57;3.45;;;;;;;;;;5062968;28;20032;-81
2022/04/17 11:25:00;;;;;;;6.15;3.40;;;;;;;;;;5062462;28;20048;-81
2022/04/17 11:27:32;;;;;;;5.47;3.42;;;;;;;;;;5055086;28;20121;-79
2022/04/17 11:29:58;;;;;;;5.55;3.15;;;;;;;;;;5055309;28;20062;-81
2022/04/17 11:32:25;;;;;;;5.32;3.85;;;;;;;;;;5053529;28;20051;-82
2022/04/17 11:34:54;;;;;;;5.43;3.40;;;;;;;;;;5060828;28;20060;-82
2022/04/17 11:37:24;;;;;;;4.60;3.33;;;;;;;;;;5055163;28;20039;-79
2022/04/17 11:39:50;;;;;;;6.28;3.03;;;;;;;;;;5060274;28;20033;-81
2022/04/17 11:42:16;;;;;;;4.35;2.88;;;;;;;;;;5059970;28;20444;-82
2022/04/17 11:44:47;;;;;;;4.70;2.67;;;;;;;;;;5077054;28;20078;-79
2022/04/17 11:47:16;;;;;;;5.00;2.80;;;;;;;;;;5071337;28;20032;-81
2022/04/17 11:49:46;;;;;;;4.93;2.70;;;;;;;;;;5072228;28;20028;-80
2022/04/17 11:52:18;;;;;;;4.90;3.00;;;;;;;;;;5058686;28;20033;-79
2022/04/17 11:54:47;;;;;;;4.10;2.75;;;;;;;;;;5062931;28;20024;-81
2022/04/17 11:57:13;;;;;;;3.95;2.60;;;;;;;;;;5061472;28;20040;-86
2022/04/17 11:59:45;;;;;;;3.38;2.38;;;;;;;;;;5075788;28;20020;-87
2022/04/17 12:02:14;;;;;;;4.47;3.10;;;;;;;;;;5075313;28;20047;-81
2022/04/17 12:04:43;;;;;;;4.45;2.75;;;;;;;;;;5059611;28;20032;-81
2022/04/17 12:07:13;;;;;;;4.05;2.33;;;;;;;;;;5077180;28;20077;-79
2022/04/17 12:09:39;;;;;;;4.38;2.53;;;;;;;;;;5062675;28;20036;-81
2022/04/17 12:12:15;;;;;;;3.60;2.40;;;;;;;;;;5071455;28;20032;-80
2022/04/17 12:14:52;;;;;;;3.80;2.15;;;;;;;;;;5057811;28;20025;-88
2022/04/17 12:18:22;;;;;;;5.75;2.35;;;;;;;;;;5074414;28;20153;-85
2022/04/17 12:21:02;;;;;;;3.90;2.38;;;;;;;;;;5076262;28;20028;-79
2022/04/17 12:23:29;;;;;;;4.80;2.78;;;;;;;;;;5069686;28;20033;-79
2022/04/17 12:25:56;;;;;;;3.55;2.40;;;;;;;;;;5056754;28;20023;-85
2022/04/17 12:28:22;;;;;;;3.55;2.13;;;;;;;;;;5063221;28;20115;-86
2022/04/17 12:30:48;;;;;;;3.92;2.42;;;;;;;;;;5056685;28;20492;-81
2022/04/17 12:33:27;;;;;;;3.65;2.60;;;;;;;;;;5077775;28;20031;-81
2022/04/17 12:36:09;;;;;;;4.45;2.70;;;;;;;;;;5074480;28;20055;-81
2022/04/17 12:38:37;;;;;;;4.22;2.65;;;;;;;;;;5060589;28;20056;-86
2022/04/17 12:41:17;;;;;;;8.20;2.45;;;;;;;;;;5076214;28;20032;-80
2022/04/17 12:43:53;;;;;;;4.45;2.67;;;;;;;;;;5047736;28;20029;-81
2022/04/17 12:46:26;;;;;;;4.38;3.05;;;;;;;;;;5061212;28;20032;-81
2022/04/17 12:49:08;;;;;;;4.05;2.90;;;;;;;;;;5054584;28;20394;-80
2022/04/17 12:51:35;;;;;;;5.45;3.03;;;;;;;;;;5057016;28;20889;-79
2022/04/17 12:54:02;;;;;;;4.47;3.25;;;;;;;;;;5058920;28;20677;-79
2022/04/17 12:56:27;;;;;;;3.80;2.85;;;;;;;;;;5056614;28;20051;-81
2022/04/17 12:59:02;;;;;;;4.93;3.13;;;;;;;;;;5053282;28;20086;-78
2022/04/17 13:01:32;;;;;;;5.63;2.75;;;;;;;;;;5055893;28;20054;-80
2022/04/17 13:04:19;;;;;;;5.15;3.00;;;;;;;;;;5054890;28;20047;-82
2022/04/17 13:06:45;;;;;;;5.40;3.20;;;;;;;;;;5070484;28;20029;-82
2022/04/17 13:09:13;;;;;;;4.05;3.10;;;;;;;;;;5076327;28;20432;-82
2022/04/17 13:11:41;;;;;;;8.80;3.63;;;;;;;;;;5061184;28;20032;-79
2022/04/17 13:14:06;;;;;;;4.47;3.20;;;;;;;;;;5065987;28;20393;-81
2022/04/17 13:16:33;;;;;;;5.82;3.05;;;;;;;;;;5063219;28;20031;-81
2022/04/17 13:18:59;;;;;;;3.72;2.72;;;;;;;;;;5074022;28;20020;-80
2022/04/17 13:21:25;;;;;;;4.95;3.25;;;;;;;;;;5075578;28;20474;-79
2022/04/17 13:23:50;;;;;;;6.25;3.10;;;;;;;;;;5070493;28;20036;-84
2022/04/17 13:26:17;;;;;;;4.93;3.22;;;;;;;;;;5083975;28;20031;-86
2022/04/17 13:28:42;;;;;;;4.45;3.10;;;;;;;;;;5062722;28;20028;-87
2022/04/17 13:31:08;;;;;;;3.80;2.88;;;;;;;;;;5060451;28;20085;-79
2022/04/17 13:33:34;;;;;;;4.10;3.05;;;;;;;;;;5065297;28;20016;-87
2022/04/17 13:36:00;;;;;;;3.92;2.80;;;;;;;;;;5083434;28;20020;-80
2022/04/17 13:38:25;;;;;;;4.32;2.85;;;;;;;;;;5067988;28;20031;-82
2022/04/17 13:40:53;;;;;;;4.57;2.90;;;;;;;;;;5068903;28;20400;-78
2022/04/17 13:43:20;;;;;;;6.88;3.15;;;;;;;;;;5067236;28;20056;-81
2022/04/17 13:45:45;;;;;;;3.97;2.90;;;;;;;;;;5088208;28;20448;-79
2022/04/17 13:48:10;;;;;;;4.85;3.03;;;;;;;;;;5083449;28;20111;-81
2022/04/17 13:50:38;;;;;;;5.45;2.90;;;;;;;;;;5085198;28;20096;-81
2022/04/17 13:53:03;;;;;;;4.65;2.90;;;;;;;;;;5086859;28;20074;-81
2022/04/17 13:55:29;;;;;;;4.68;2.90;;;;;;;;;;5084878;28;20024;-78
2022/04/17 13:57:56;;;;;;;4.53;3.00;;;;;;;;;;5066632;28;20107;-79
2022/04/17 14:00:22;;;;;;;4.97;3.17;;;;;;;;;;5061958;28;20020;-86
2022/04/17 14:02:48;;;;;;;6.50;2.97;;;;;;;;;;5064929;28;20043;-87
2022/04/17 14:05:13;;;;;;;4.30;2.80;;;;;;;;;;5063840;28;20027;-78
2022/04/17 14:07:39;;;;;;;4.35;2.80;;;;;;;;;;5081119;28;20493;-85
2022/04/17 14:10:05;;;;;;;4.53;3.03;;;;;;;;;;5085131;28;20047;-82
2022/04/17 14:12:30;;;;;;;4.18;2.60;;;;;;;;;;5068526;28;20020;-79
2022/04/17 14:14:57;;;;;;;5.22;3.10;;;;;;;;;;5076366;28;20027;-82
2022/04/17 14:17:24;;;;;;;5.43;2.88;;;;;;;;;;5068667;28;20036;-81
2022/04/17 14:19:49;;;;;;;4.22;2.70;;;;;;;;;;5059417;28;20115;-79
2022/04/17 14:22:15;;;;;;;4.75;2.53;;;;;;;;;;5062907;28;20103;-78
2022/04/17 14:24:41;;;;;;;3.60;2.50;;;;;;;;;;5084892;28;20028;-79
2022/04/17 14:27:06;;;;;;;4.10;2.60;;;;;;;;;;5065943;28;20444;-80
2022/04/17 14:29:31;;;;;;;4.22;2.58;;;;;;;;;;5083644;28;20056;-86
2022/04/17 14:31:56;;;;;;;4.82;3.00;;;;;;;;;;5063211;28;20500;-81
2022/04/17 14:34:22;;;;;;;4.40;2.50;;;;;;;;;;5066870;28;20012;-87
2022/04/17 14:36:47;;;;;;;3.80;2.30;;;;;;;;;;5064387;28;20435;-81
2022/04/17 14:39:12;;;;;;;3.40;2.20;;;;;;;;;;5084290;28;20031;-80
2022/04/17 14:41:39;;;;;;;4.10;2.35;;;;;;;;;;5066433;28;20032;-78
2022/04/17 14:44:05;;;;;;;4.35;2.70;;;;;;;;;;5062061;28;20072;-78
2022/04/17 14:46:31;;;;;;;3.92;2.65;;;;;;;;;;5080797;28;20028;-86
2022/04/17 14:48:56;;;;;;;4.07;2.30;;;;;;;;;;5066720;28;20078;-80
2022/04/17 14:51:22;;;;;;;5.72;2.67;;;;;;;;;;5064709;28;20111;-81
2022/04/17 14:53:48;;;;;;;3.60;2.15;;;;;;;;;;5063647;28;20024;-79
2022/04/17 14:56:16;;;;;;;4.65;2.70;;;;;;;;;;5085673;28;20508;-80
2022/04/17 14:58:41;;;;;;;4.30;2.70;;;;;;;;;;5080039;28;20036;-81
2022/04/17 15:01:08;;;;;;;5.22;2.70;;;;;;;;;;5084418;28;20044;-87
2022/04/17 15:03:34;;;;;;;3.45;2.50;;;;;;;;;;5061448;28;20024;-79
2022/04/17 15:05:59;;;;;;;4.30;2.63;;;;;;;;;;5065105;28;20029;-81
2022/04/17 15:08:25;;;;;;;5.03;2.35;;;;;;;;;;5083783;28;20055;-85
2022/04/17 15:10:51;;;;;;;3.53;2.45;;;;;;;;;;5068161;28;20077;-88
2022/04/17 15:13:21;;;;;;;4.05;2.63;;;;;;;;;;5064356;28;20085;-85
2022/04/17 15:15:47;;;;;;;4.90;2.40;;;;;;;;;;5084517;28;20389;-80
2022/04/17 15:18:13;;;;;;;3.85;2.40;;;;;;;;;;5066837;28;20097;-86
2022/04/17 15:20:38;;;;;;;4.90;2.92;;;;;;;;;;5067342;28;20119;-82
2022/04/17 15:23:04;;;;;;;4.57;2.65;;;;;;;;;;5063627;28;20569;-86